createdAt,value
2018-03-29T00:01:14.193Z,82.60
2018-03-29T00:03:41.833Z,82.65
2018-03-29T00:06:09.485Z,82.67
2018-03-29T00:08:37.156Z,82.72
2018-03-29T00:11:04.818Z,82.79
2018-03-29T00:13:32.481Z,82.77
2018-03-29T00:16:00.097Z,82.80
2018-03-29T00:18:27.740Z,82.79
2018-03-29T00:20:55.349Z,82.79
2018-03-29T00:23:22.989Z,82.87
2018-03-29T00:25:50.695Z,82.87
2018-03-29T00:28:18.324Z,82.86
2018-03-29T00:30:46.026Z,82.88
2018-03-29T00:33:13.660Z,82.84
2018-03-29T00:35:41.344Z,82.94
2018-03-29T00:38:09.024Z,82.98
2018-03-29T00:40:36.673Z,82.95
2018-03-29T00:43:04.337Z,82.92
2018-03-29T00:45:31.965Z,83.13
2018-03-29T00:47:59.664Z,83.09
2018-03-29T00:50:27.424Z,83.03
2018-03-29T00:52:55.088Z,83.18
2018-03-29T00:55:22.715Z,83.09
2018-03-29T00:57:50.407Z,83.16
2018-03-29T01:00:18.047Z,83.13
2018-03-29T01:02:45.661Z,83.06
2018-03-29T01:05:13.401Z,83.14
2018-03-29T01:07:41.012Z,83.01
2018-03-29T01:10:08.720Z,83.06
2018-03-29T01:12:36.332Z,83.04
2018-03-29T01:15:04.053Z,83.02
2018-03-29T01:17:31.693Z,82.99
2018-03-29T01:19:59.300Z,82.85
2018-03-29T01:22:26.936Z,82.64
2018-03-29T01:24:54.541Z,82.89
2018-03-29T01:27:22.172Z,82.96
2018-03-29T01:29:49.781Z,82.96
2018-03-29T01:32:29.296Z,83.02
2018-03-29T01:34:56.920Z,83.00
2018-03-29T01:37:24.548Z,83.05
2018-03-29T01:39:52.158Z,82.97
2018-03-29T01:42:19.811Z,82.99
2018-03-29T01:44:47.421Z,83.08
2018-03-29T01:47:15.057Z,83.08
2018-03-29T01:49:42.660Z,83.15
2018-03-29T01:52:10.268Z,83.12
2018-03-29T01:54:37.901Z,83.20
2018-03-29T01:57:05.581Z,83.12
2018-03-29T01:59:33.216Z,83.16
2018-03-29T02:02:00.824Z,83.08
2018-03-29T02:04:28.448Z,83.22
2018-03-29T02:06:56.097Z,83.22
2018-03-29T02:09:23.729Z,83.20
2018-03-29T02:11:51.338Z,83.18
2018-03-29T02:14:18.969Z,83.18
2018-03-29T02:16:46.576Z,83.26
2018-03-29T02:19:14.241Z,83.24
2018-03-29T02:21:41.848Z,83.16
2018-03-29T02:24:09.456Z,83.24
2018-03-29T02:26:37.129Z,83.03
2018-03-29T02:29:04.738Z,82.98
2018-03-29T02:31:32.449Z,83.16
2018-03-29T02:34:00.067Z,83.25
2018-03-29T02:36:27.773Z,83.20
2018-03-29T02:38:55.384Z,83.29
2018-03-29T02:41:23.013Z,83.20
2018-03-29T02:43:50.620Z,83.25
2018-03-29T02:46:18.257Z,83.26
2018-03-29T02:48:45.868Z,83.26
2018-03-29T02:51:13.517Z,83.15
2018-03-29T02:53:41.151Z,83.16
2018-03-29T02:56:08.818Z,83.10
2018-03-29T02:58:36.536Z,83.05
2018-03-29T03:01:04.205Z,82.83
2018-03-29T03:03:31.834Z,82.85
2018-03-29T03:05:59.441Z,82.68
2018-03-29T03:08:27.189Z,82.63
2018-03-29T03:10:54.856Z,82.73
2018-03-29T03:13:22.493Z,82.74
2018-03-29T03:15:50.100Z,82.74
2018-03-29T03:18:17.728Z,82.68
2018-03-29T03:20:45.335Z,82.56
2018-03-29T03:23:12.980Z,82.47
2018-03-29T03:25:40.589Z,82.53
2018-03-29T03:28:08.220Z,82.60
2018-03-29T03:30:35.829Z,82.59
2018-03-29T03:33:03.504Z,82.61
2018-03-29T03:35:31.173Z,82.59
2018-03-29T03:37:58.780Z,82.50
2018-03-29T03:40:26.416Z,82.56
2018-03-29T03:42:54.061Z,82.58
2018-03-29T03:45:21.721Z,82.47
2018-03-29T03:47:49.328Z,82.46
2018-03-29T03:50:16.962Z,82.46
2018-03-29T03:52:44.572Z,82.46
2018-03-29T03:55:12.264Z,82.27
2018-03-29T03:57:39.881Z,82.32
2018-03-29T04:00:07.520Z,82.27
2018-03-29T04:02:35.128Z,82.30
2018-03-29T04:05:02.741Z,82.31
2018-03-29T04:07:30.369Z,82.25
2018-03-29T04:09:58.041Z,82.38
2018-03-29T04:12:25.704Z,82.05
2018-03-29T04:14:53.308Z,82.02
2018-03-29T04:17:20.941Z,82.10
2018-03-29T04:19:48.584Z,82.13
2018-03-29T04:22:16.249Z,82.08
2018-03-29T04:24:43.918Z,81.93
2018-03-29T04:27:11.553Z,81.77
2018-03-29T04:29:39.241Z,81.72
2018-03-29T04:32:06.964Z,81.66
2018-03-29T04:34:34.573Z,81.62
2018-03-29T04:37:02.181Z,81.53
2018-03-29T04:39:29.813Z,81.58
2018-03-29T04:41:57.449Z,81.69
2018-03-29T04:44:25.077Z,81.77
2018-03-29T04:46:52.688Z,81.70
2018-03-29T04:49:20.336Z,81.68
2018-03-29T04:51:48.002Z,81.66
2018-03-29T04:54:15.660Z,81.78
2018-03-29T04:56:43.269Z,81.81
2018-03-29T04:59:10.985Z,81.94
2018-03-29T05:01:38.594Z,82.01
2018-03-29T05:04:06.410Z,82.25
2018-03-29T05:06:34.045Z,82.44
2018-03-29T05:09:01.740Z,82.50
2018-03-29T05:11:29.376Z,82.52
2018-03-29T05:13:57.065Z,82.53
2018-03-29T05:16:24.731Z,82.48
2018-03-29T05:18:52.336Z,82.43
2018-03-29T05:21:19.972Z,82.32
2018-03-29T05:23:47.580Z,82.38
2018-03-29T05:26:15.204Z,82.43
2018-03-29T05:28:42.817Z,82.24
2018-03-29T05:31:10.460Z,82.19
2018-03-29T05:33:38.068Z,82.02
2018-03-29T05:36:05.737Z,81.92
2018-03-29T05:38:33.347Z,81.73
2018-03-29T05:41:01.058Z,81.78
2018-03-29T05:43:28.708Z,81.71
2018-03-29T05:45:56.325Z,81.50
2018-03-29T05:48:23.957Z,81.42
2018-03-29T05:50:51.600Z,81.34
2018-03-29T05:53:19.357Z,80.90
2018-03-29T05:55:47.025Z,80.44
2018-03-29T05:58:14.658Z,80.19
2018-03-29T06:00:42.264Z,80.09
2018-03-29T06:03:09.913Z,79.79
2018-03-29T06:05:37.517Z,79.52
2018-03-29T06:08:05.148Z,79.35
2018-03-29T06:10:32.801Z,79.15
2018-03-29T06:13:00.465Z,79.02
2018-03-29T06:15:33.026Z,78.96
2018-03-29T06:18:00.652Z,78.80
2018-03-29T06:20:28.254Z,78.48
2018-03-29T06:22:55.924Z,78.28
2018-03-29T06:25:23.563Z,78.29
2018-03-29T06:27:51.168Z,77.90
2018-03-29T06:30:18.808Z,77.86
2018-03-29T06:32:46.412Z,77.62
2018-03-29T06:35:14.039Z,77.56
2018-03-29T06:37:41.637Z,77.52
2018-03-29T06:40:09.344Z,77.40
2018-03-29T06:42:38.373Z,77.25
2018-03-29T06:45:05.993Z,77.17
2018-03-29T06:47:33.672Z,77.08
2018-03-29T06:50:01.322Z,77.02
2018-03-29T06:52:28.927Z,76.74
2018-03-29T06:54:56.559Z,76.57
2018-03-29T06:57:24.192Z,76.51
2018-03-29T06:59:51.793Z,76.14
2018-03-29T07:02:19.416Z,76.09
2018-03-29T07:04:47.013Z,75.94
2018-03-29T07:07:14.772Z,75.95
2018-03-29T07:09:42.368Z,75.88
2018-03-29T07:12:10.097Z,75.52
2018-03-29T07:14:37.692Z,75.34
2018-03-29T07:17:05.322Z,75.25
2018-03-29T07:19:32.926Z,75.17
2018-03-29T07:22:00.549Z,75.19
2018-03-29T07:24:28.172Z,75.11
2018-03-29T07:26:55.867Z,74.60
2018-03-29T07:29:23.490Z,74.49
2018-03-29T07:31:51.089Z,74.17
2018-03-29T07:34:18.708Z,74.20
2018-03-29T07:36:46.421Z,73.82
2018-03-29T07:39:14.069Z,73.93
2018-03-29T07:41:41.664Z,73.90
2018-03-29T07:44:09.309Z,73.97
2018-03-29T07:46:36.904Z,73.97
2018-03-29T07:49:04.529Z,74.10
2018-03-29T07:51:32.192Z,74.01
2018-03-29T07:53:59.800Z,73.69
2018-03-29T07:56:27.424Z,73.70
2018-03-29T07:58:55.025Z,73.51
2018-03-29T08:01:22.652Z,73.56
2018-03-29T08:03:50.296Z,73.44
2018-03-29T08:06:17.964Z,73.29
2018-03-29T08:08:45.561Z,73.24
2018-03-29T08:11:13.288Z,73.01
2018-03-29T08:13:40.953Z,73.32
2018-03-29T08:16:09.507Z,73.14
2018-03-29T08:18:37.104Z,73.03
2018-03-29T08:21:04.760Z,73.02
2018-03-29T08:23:32.380Z,72.91
2018-03-29T08:25:59.982Z,72.87
2018-03-29T08:28:27.609Z,72.87
2018-03-29T08:30:55.317Z,72.80
2018-03-29T08:33:22.965Z,72.73
2018-03-29T08:35:50.564Z,72.52
2018-03-29T08:38:18.189Z,72.35
2018-03-29T08:40:45.851Z,72.28
2018-03-29T08:43:13.521Z,72.20
2018-03-29T08:45:41.120Z,71.95
2018-03-29T08:48:08.791Z,72.13
2018-03-29T08:50:36.378Z,72.00
2018-03-29T08:53:04.037Z,72.10
2018-03-29T08:55:31.725Z,72.37
2018-03-29T08:57:59.321Z,72.71
2018-03-29T09:00:27.052Z,72.50
2018-03-29T09:02:54.659Z,72.61
2018-03-29T09:05:22.380Z,72.65
2018-03-29T09:07:49.986Z,72.74
2018-03-29T09:10:17.704Z,72.73
2018-03-29T09:12:45.308Z,72.86
2018-03-29T09:15:13.028Z,72.86
2018-03-29T09:17:40.628Z,72.50
2018-03-29T09:20:08.298Z,72.46
2018-03-29T09:22:35.900Z,72.51
2018-03-29T09:25:03.501Z,72.00
2018-03-29T09:27:31.120Z,71.64
2018-03-29T09:29:58.805Z,71.81
2018-03-29T09:32:26.445Z,71.85
2018-03-29T09:34:54.048Z,71.62
2018-03-29T09:37:21.684Z,71.66
2018-03-29T09:39:49.361Z,71.47
2018-03-29T09:42:16.985Z,71.65
2018-03-29T09:44:44.585Z,71.39
2018-03-29T09:47:12.208Z,71.46
2018-03-29T09:49:39.808Z,71.74
2018-03-29T09:52:07.416Z,71.79
2018-03-29T09:54:35.149Z,71.79
2018-03-29T09:57:03.396Z,71.77
2018-03-29T09:59:31.073Z,71.62
2018-03-29T10:01:58.684Z,71.62
2018-03-29T10:04:26.392Z,71.66
2018-03-29T10:06:59.624Z,71.44
2018-03-29T10:09:27.578Z,71.02
2018-03-29T10:11:55.176Z,70.78
2018-03-29T10:14:22.828Z,71.02
2018-03-29T10:16:50.484Z,70.65
2018-03-29T10:19:18.209Z,70.51
2018-03-29T10:21:45.971Z,70.44
2018-03-29T10:24:13.572Z,70.33
2018-03-29T10:26:41.204Z,70.45
2018-03-29T10:29:08.804Z,70.39
2018-03-29T10:31:36.529Z,70.43
2018-03-29T10:34:04.181Z,70.29
2018-03-29T10:36:31.844Z,69.81
2018-03-29T10:38:59.448Z,69.62
2018-03-29T10:41:27.409Z,69.99
2018-03-29T10:43:55.042Z,70.12
2018-03-29T10:46:22.709Z,70.17
2018-03-29T10:48:50.369Z,69.87
2018-03-29T10:51:18.121Z,70.05
2018-03-29T10:53:45.992Z,69.94
2018-03-29T10:56:13.661Z,69.58
2018-03-29T10:58:41.304Z,69.43
2018-03-29T11:01:08.921Z,69.42
2018-03-29T11:03:36.552Z,69.21
2018-03-29T11:06:04.174Z,69.22
2018-03-29T11:08:31.828Z,69.41
2018-03-29T11:10:59.444Z,69.17
2018-03-29T11:13:27.092Z,69.25
2018-03-29T11:15:54.728Z,69.55
2018-03-29T11:18:22.422Z,69.44
2018-03-29T11:20:50.056Z,69.21
2018-03-29T11:23:17.744Z,68.97
2018-03-29T11:25:45.376Z,69.20
2018-03-29T11:28:13.072Z,68.68
2018-03-29T11:30:40.720Z,68.88
2018-03-29T11:33:08.397Z,68.99
2018-03-29T11:35:36.153Z,68.76
2018-03-29T11:38:03.830Z,68.81
2018-03-29T11:40:31.469Z,68.71
2018-03-29T11:42:59.100Z,68.24
2018-03-29T11:45:26.712Z,68.21
2018-03-29T11:47:54.346Z,68.23
2018-03-29T11:50:22.036Z,68.03
2018-03-29T11:52:49.701Z,67.71
2018-03-29T11:55:17.362Z,67.54
2018-03-29T11:57:45.025Z,67.36
2018-03-29T12:00:12.684Z,67.40
2018-03-29T12:02:40.298Z,67.56
2018-03-29T12:05:07.951Z,67.52
2018-03-29T12:07:35.572Z,67.67
2018-03-29T12:10:03.212Z,67.57
2018-03-29T12:12:30.900Z,67.37
2018-03-29T12:14:58.560Z,67.16
2018-03-29T12:17:26.228Z,66.87
2018-03-29T12:19:53.865Z,67.17
2018-03-29T12:22:21.481Z,67.42
2018-03-29T12:24:49.115Z,67.45
2018-03-29T12:27:16.772Z,66.67
2018-03-29T12:29:44.437Z,66.98
2018-03-29T12:32:12.049Z,67.36
2018-03-29T12:34:39.760Z,67.09
2018-03-29T12:37:07.428Z,66.84
2018-03-29T12:39:35.050Z,66.85
2018-03-29T12:42:02.693Z,67.31
2018-03-29T12:44:30.305Z,67.35
2018-03-29T12:46:57.988Z,66.84
2018-03-29T12:49:25.604Z,66.50
2018-03-29T12:51:53.298Z,66.24
2018-03-29T12:54:20.912Z,66.22
2018-03-29T12:57:00.345Z,66.31
2018-03-29T12:59:27.961Z,66.57
2018-03-29T13:01:55.591Z,66.22
2018-03-29T13:04:23.284Z,65.84
2018-03-29T13:06:50.948Z,65.63
2018-03-29T13:09:18.560Z,65.37
2018-03-29T13:11:46.198Z,65.12
2018-03-29T13:14:13.836Z,65.22
2018-03-29T13:16:41.496Z,65.54
2018-03-29T13:19:09.161Z,65.99
2018-03-29T13:21:36.801Z,64.93
2018-03-29T13:24:04.416Z,64.55
2018-03-29T13:26:32.061Z,64.26
2018-03-29T13:28:59.708Z,63.23
2018-03-29T13:31:27.340Z,62.99
2018-03-29T13:33:54.993Z,62.55
2018-03-29T13:36:22.628Z,63.02
2018-03-29T13:38:50.248Z,63.58
2018-03-29T13:41:17.920Z,63.19
2018-03-29T13:43:45.581Z,62.93
2018-03-29T13:46:13.217Z,62.06
2018-03-29T13:48:40.852Z,62.01
2018-03-29T13:51:08.494Z,62.26
2018-03-29T13:53:36.108Z,62.79
2018-03-29T13:56:03.796Z,63.15
2018-03-29T13:58:31.448Z,63.35
2018-03-29T14:00:59.061Z,63.51
2018-03-29T14:03:26.692Z,63.45
2018-03-29T14:05:54.344Z,63.13
2018-03-29T14:08:22.000Z,63.32
2018-03-29T14:10:49.617Z,63.54
2018-03-29T14:13:17.253Z,63.86
2018-03-29T14:15:44.877Z,63.78
2018-03-29T14:18:12.513Z,64.00
2018-03-29T14:20:40.128Z,63.83
2018-03-29T14:23:07.778Z,63.52
2018-03-29T14:25:35.442Z,63.29
2018-03-29T14:28:03.082Z,63.44
2018-03-29T14:30:30.709Z,63.79
2018-03-29T14:32:58.347Z,64.05
2018-03-29T14:35:25.992Z,64.20
2018-03-29T14:37:53.644Z,63.59
2018-03-29T14:40:21.343Z,63.56
2018-03-29T14:42:48.980Z,62.53
2018-03-29T14:45:16.600Z,62.33
2018-03-29T14:47:44.248Z,62.40
2018-03-29T14:50:11.963Z,63.08
2018-03-29T14:52:39.600Z,62.57
2018-03-29T14:55:07.228Z,62.41
2018-03-29T14:57:34.864Z,62.51
2018-03-29T15:00:02.491Z,63.03
2018-03-29T15:02:30.176Z,63.38
2018-03-29T15:04:57.790Z,63.48
2018-03-29T15:07:25.427Z,63.63
2018-03-29T15:09:53.060Z,64.28
2018-03-29T15:12:20.696Z,64.39
2018-03-29T15:14:48.314Z,64.71
2018-03-29T15:17:16.048Z,64.50
2018-03-29T15:19:44.532Z,63.89
2018-03-29T15:22:12.167Z,63.87
2018-03-29T15:24:39.784Z,64.13
2018-03-29T15:27:07.421Z,64.08
2018-03-29T15:29:35.039Z,64.44
2018-03-29T15:32:02.676Z,64.83
2018-03-29T15:34:30.289Z,64.97
2018-03-29T15:36:57.929Z,65.15
2018-03-29T15:39:25.568Z,65.09
2018-03-29T15:41:53.184Z,65.18
2018-03-29T15:44:20.825Z,65.30
2018-03-29T15:46:48.442Z,64.49
2018-03-29T15:49:16.081Z,64.20
2018-03-29T15:51:43.692Z,64.20
2018-03-29T15:54:11.328Z,63.65
2018-03-29T15:56:38.960Z,63.81
2018-03-29T15:59:06.615Z,63.65
2018-03-29T16:01:34.500Z,63.93
2018-03-29T16:04:02.156Z,64.08
2018-03-29T16:06:29.812Z,64.20
2018-03-29T16:08:57.473Z,64.50
2018-03-29T16:11:25.148Z,64.50
2018-03-29T16:13:52.808Z,64.76
2018-03-29T16:16:20.473Z,64.90
2018-03-29T16:18:48.104Z,64.57
2018-03-29T16:21:15.713Z,64.06
2018-03-29T16:23:43.354Z,63.94
2018-03-29T16:26:10.956Z,64.17
2018-03-29T16:28:38.589Z,64.00
2018-03-29T16:31:06.192Z,64.00
2018-03-29T16:33:33.904Z,63.79
2018-03-29T16:36:01.560Z,63.79
2018-03-29T16:38:29.240Z,63.86
2018-03-29T16:40:56.887Z,63.99
2018-03-29T16:43:24.516Z,64.17
2018-03-29T16:45:52.116Z,63.95
2018-03-29T16:48:19.748Z,64.08
2018-03-29T16:50:47.432Z,64.18
2018-03-29T16:53:15.056Z,64.35
2018-03-29T16:55:42.662Z,64.32
2018-03-29T16:58:10.320Z,64.56
2018-03-29T17:00:37.981Z,64.37
2018-03-29T17:03:05.604Z,64.33
2018-03-29T17:05:33.212Z,64.24
2018-03-29T17:08:00.875Z,64.31
2018-03-29T17:10:28.477Z,63.76
2018-03-29T17:12:56.200Z,63.01
2018-03-29T17:15:23.813Z,63.19
2018-03-29T17:17:51.417Z,63.74
2018-03-29T17:20:19.705Z,64.34
2018-03-29T17:22:47.359Z,64.89
2018-03-29T17:25:15.021Z,65.15
2018-03-29T17:27:42.684Z,65.32
2018-03-29T17:30:10.317Z,65.46
2018-03-29T17:32:37.933Z,65.69
2018-03-29T17:35:05.573Z,65.75
2018-03-29T17:37:33.180Z,65.92
2018-03-29T17:40:00.804Z,66.31
2018-03-29T17:42:28.460Z,66.42
2018-03-29T17:44:56.084Z,66.46
2018-03-29T17:47:23.685Z,66.67
2018-03-29T17:49:51.317Z,66.78
2018-03-29T17:52:18.925Z,66.95
2018-03-29T17:54:46.559Z,67.11
2018-03-29T17:57:14.168Z,67.10
2018-03-29T17:59:41.897Z,66.90
2018-03-29T18:02:09.496Z,65.92
2018-03-29T18:04:37.216Z,65.30
2018-03-29T18:07:04.819Z,64.52
2018-03-29T18:09:32.540Z,63.75
2018-03-29T18:12:00.141Z,63.21
2018-03-29T18:14:27.764Z,63.48
2018-03-29T18:16:55.428Z,63.93
2018-03-29T18:19:23.092Z,64.46
2018-03-29T18:21:50.697Z,64.81
2018-03-29T18:24:18.321Z,64.99
2018-03-29T18:26:45.926Z,65.12
2018-03-29T18:29:13.557Z,65.21
2018-03-29T18:31:41.201Z,65.09
2018-03-29T18:34:08.861Z,64.97
2018-03-29T18:36:36.460Z,65.11
2018-03-29T18:39:04.088Z,65.16
2018-03-29T18:41:31.689Z,65.40
2018-03-29T18:43:59.412Z,65.77
2018-03-29T18:46:27.045Z,66.16
2018-03-29T18:48:54.653Z,66.47
2018-03-29T18:51:22.276Z,66.52
2018-03-29T18:53:49.966Z,66.61
2018-03-29T18:56:17.595Z,66.50
2018-03-29T18:58:45.284Z,66.34
2018-03-29T19:01:12.912Z,66.16
2018-03-29T19:03:40.617Z,66.26
2018-03-29T19:06:08.244Z,66.41
2018-03-29T19:08:35.948Z,66.53
2018-03-29T19:11:03.605Z,66.29
2018-03-29T19:13:31.261Z,65.93
2018-03-29T19:15:58.888Z,65.62
2018-03-29T19:18:26.588Z,65.17
2018-03-29T19:20:54.220Z,64.65
2018-03-29T19:23:21.873Z,64.64
2018-03-29T19:25:49.499Z,64.91
2018-03-29T19:28:17.104Z,65.39
2018-03-29T19:30:44.796Z,65.72
2018-03-29T19:33:12.460Z,66.10
2018-03-29T19:35:40.192Z,66.36
2018-03-29T19:38:07.808Z,66.71
2018-03-29T19:40:35.432Z,67.01
2018-03-29T19:43:03.113Z,67.05
2018-03-29T19:45:30.801Z,67.26
2018-03-29T19:47:58.405Z,67.38
2018-03-29T19:50:26.035Z,67.41
2018-03-29T19:52:53.673Z,67.09
2018-03-29T19:55:21.325Z,66.42
2018-03-29T19:57:48.932Z,66.27
2018-03-29T20:00:16.649Z,66.31
2018-03-29T20:02:44.272Z,66.57
2018-03-29T20:05:11.908Z,66.58
2018-03-29T20:07:39.563Z,66.63
2018-03-29T20:10:07.176Z,66.62
2018-03-29T20:12:34.948Z,66.84
2018-03-29T20:15:02.629Z,67.01
2018-03-29T20:17:30.287Z,66.98
2018-03-29T20:19:58.036Z,67.17
2018-03-29T20:22:25.689Z,67.20
2018-03-29T20:24:54.117Z,66.52
2018-03-29T20:27:21.745Z,66.18
2018-03-29T20:29:49.370Z,66.03
2018-03-29T20:32:16.995Z,66.15
2018-03-29T20:34:44.595Z,66.26
2018-03-29T20:37:12.227Z,66.44
2018-03-29T20:39:39.877Z,66.51
2018-03-29T20:42:07.656Z,66.65
2018-03-29T20:44:35.297Z,66.75
2018-03-29T20:47:02.921Z,66.86
2018-03-29T20:49:30.624Z,66.91
2018-03-29T20:51:58.284Z,67.15
2018-03-29T20:54:25.889Z,67.39
2018-03-29T20:56:53.532Z,67.51
2018-03-29T20:59:21.168Z,67.51
2018-03-29T21:01:48.802Z,67.58
2018-03-29T21:04:16.497Z,67.77
2018-03-29T21:06:44.157Z,67.81
2018-03-29T21:09:11.757Z,67.78
2018-03-29T21:11:39.384Z,67.49
2018-03-29T21:14:06.990Z,67.27
2018-03-29T21:16:34.617Z,67.36
2018-03-29T21:19:02.220Z,67.40
2018-03-29T21:21:29.861Z,67.25
2018-03-29T21:23:57.489Z,67.41
2018-03-29T21:26:25.092Z,67.57
2018-03-29T21:28:52.840Z,67.51
2018-03-29T21:31:20.449Z,67.25
2018-03-29T21:33:48.075Z,67.55
2018-03-29T21:36:15.693Z,67.56
2018-03-29T21:38:43.328Z,67.48
2018-03-29T21:41:11.025Z,67.49
2018-03-29T21:43:38.648Z,67.46
2018-03-29T21:46:06.257Z,67.43
2018-03-29T21:48:33.893Z,67.30
2018-03-29T21:51:01.581Z,67.15
2018-03-29T21:53:29.208Z,67.17
2018-03-29T21:55:56.812Z,66.95
2018-03-29T21:58:24.440Z,66.83
2018-03-29T22:00:52.077Z,66.93
2018-03-29T22:03:19.792Z,66.89
2018-03-29T22:05:47.396Z,66.85
2018-03-29T22:08:15.034Z,66.77
2018-03-29T22:10:42.637Z,66.92
2018-03-29T22:13:10.342Z,67.21
2018-03-29T22:15:37.952Z,67.04
2018-03-29T22:18:05.582Z,66.85
2018-03-29T22:20:33.198Z,66.93
2018-03-29T22:23:00.886Z,66.97
2018-03-29T22:25:28.524Z,66.95
2018-03-29T22:27:56.208Z,67.02
2018-03-29T22:30:23.808Z,67.11
2018-03-29T22:32:51.434Z,67.11
2018-03-29T22:35:19.096Z,67.12
2018-03-29T22:37:46.764Z,67.17
2018-03-29T22:40:14.425Z,67.22
2018-03-29T22:42:42.050Z,67.25
2018-03-29T22:45:09.655Z,67.39
2018-03-29T22:47:37.288Z,67.33
2018-03-29T22:50:04.896Z,67.49
2018-03-29T22:52:32.633Z,67.54
2018-03-29T22:55:00.297Z,67.57
2018-03-29T22:57:27.897Z,67.65
2018-03-29T22:59:55.524Z,67.62
2018-03-29T23:02:23.184Z,67.77
2018-03-29T23:04:50.876Z,67.57
2018-03-29T23:07:18.476Z,67.72
2018-03-29T23:09:46.108Z,67.74
2018-03-29T23:12:13.724Z,67.86
2018-03-29T23:14:41.354Z,68.03
2018-03-29T23:17:08.953Z,68.13
2018-03-29T23:19:36.580Z,68.21
2018-03-29T23:22:04.181Z,68.31
2018-03-29T23:24:31.845Z,68.35
2018-03-29T23:26:59.501Z,68.40
2018-03-29T23:29:27.132Z,68.53
2018-03-29T23:31:54.732Z,68.65
2018-03-29T23:34:22.356Z,68.77
2018-03-29T23:36:50.053Z,68.94
2018-03-29T23:39:17.716Z,69.05
2018-03-29T23:41:45.376Z,69.12
2018-03-29T23:44:13.000Z,69.27
2018-03-29T23:46:40.600Z,69.41
2018-03-29T23:49:08.228Z,69.56
2018-03-29T23:51:35.921Z,69.55
2018-03-29T23:54:03.552Z,69.63
2018-03-29T23:56:31.152Z,69.76
2018-03-29T23:58:58.813Z,69.88
